Time;durP1;ratioP1;P1;durP2;ratioP2;P2;SDS_P1;SDS_P2;PMS_P1;PMS_P2;Temp;Humidity;BMP_temperature;BMP_pressure;BME280_temperature;BME280_humidity;BME280_pressure;Samples;Min_cycle;Max_cycle;Signal;HPM_P1;HPM_P2
2022/07/18 00:01:35;;;;;;;6.97;6.15;;;;;;;;;;4994221;28;20061;-49
2022/07/18 00:04:01;;;;;;;10.07;7.45;;;;;;;;;;4995296;28;20054;-50
2022/07/18 00:06:27;;;;;;;15.43;7.07;;;;;;;;;;4993817;28;20030;-51
2022/07/18 00:08:53;;;;;;;7.90;7.20;;;;;;;;;;4994778;28;20034;-49
2022/07/18 00:11:20;;;;;;;11.05;7.25;;;;;;;;;;4993644;28;20030;-49
2022/07/18 00:13:46;;;;;;;8.57;6.85;;;;;;;;;;4994505;28;20523;-50
2022/07/18 00:16:12;;;;;;;8.30;7.10;;;;;;;;;;4995140;28;20547;-49
2022/07/18 00:18:38;;;;;;;9.10;7.15;;;;;;;;;;4994971;28;20022;-48
2022/07/18 00:21:04;;;;;;;10.77;7.20;;;;;;;;;;4993537;28;20523;-49
2022/07/18 00:23:30;;;;;;;8.57;7.32;;;;;;;;;;4994678;28;20030;-49
2022/07/18 00:25:56;;;;;;;8.43;6.75;;;;;;;;;;4993543;28;20391;-49
2022/07/18 00:28:22;;;;;;;10.55;7.65;;;;;;;;;;4994660;28;20030;-49
2022/07/18 00:30:48;;;;;;;8.65;7.60;;;;;;;;;;4994610;28;20035;-49
2022/07/18 00:33:15;;;;;;;7.20;6.50;;;;;;;;;;4994787;28;20041;-49
2022/07/18 00:35:41;;;;;;;11.23;7.95;;;;;;;;;;4994638;28;20030;-49
2022/07/18 00:38:07;;;;;;;11.93;7.55;;;;;;;;;;4992814;28;20068;-49
2022/07/18 00:40:33;;;;;;;9.32;7.55;;;;;;;;;;4992908;28;20073;-49
2022/07/18 00:42:59;;;;;;;14.20;7.95;;;;;;;;;;4983724;28;20050;-49
2022/07/18 00:45:25;;;;;;;10.23;7.88;;;;;;;;;;4973397;28;20027;-49
2022/07/18 00:47:52;;;;;;;11.45;7.88;;;;;;;;;;4989891;28;20041;-49
2022/07/18 00:50:21;;;;;;;9.13;8.23;;;;;;;;;;4992185;28;20038;-49
2022/07/18 00:52:47;;;;;;;9.05;7.47;;;;;;;;;;4991503;28;20407;-49
2022/07/18 00:55:13;;;;;;;12.63;8.48;;;;;;;;;;4993454;28;20030;-49
2022/07/18 00:57:40;;;;;;;9.00;8.07;;;;;;;;;;4994127;28;20042;-49
2022/07/18 01:02:53;;;;;;;10.20;8.38;;;;;;;;;;4994110;28;20032;-49
2022/07/18 01:05:19;;;;;;;10.63;7.97;;;29.40;53.20;;;;;;4994282;28;20080;-50
2022/07/18 01:07:45;;;;;;;13.57;9.53;;;27.30;57.40;;;;;;4993926;28;20454;-49
2022/07/18 01:10:11;;;;;;;11.40;8.83;;;27.10;57.20;;;;;;4993831;28;20038;-50
2022/07/18 01:12:37;;;;;;;11.57;8.75;;;27.00;57.60;;;;;;4993643;28;20038;-49
2022/07/18 01:15:04;;;;;;;10.47;8.23;;;26.90;57.70;;;;;;4989940;28;20336;-49
2022/07/18 01:17:29;;;;;;;10.65;9.55;;;26.90;57.70;;;;;;4993738;28;20431;-51
2022/07/18 01:19:55;;;;;;;9.47;8.57;;;26.90;58.00;;;;;;4993766;28;20165;-49
2022/07/18 01:22:21;;;;;;;10.83;8.63;;;26.80;57.70;;;;;;4993952;28;20030;-49
2022/07/18 01:24:47;;;;;;;12.00;9.38;;;26.80;57.90;;;;;;4993492;28;20030;-49
2022/07/18 01:27:21;;;;;;;12.07;8.32;;;26.80;57.70;;;;;;4993542;28;20398;-49
2022/07/18 01:29:49;;;;;;;12.95;9.23;;;26.80;57.90;;;;;;4993507;28;20034;-49
2022/07/18 01:32:16;;;;;;;12.00;8.95;;;26.70;58.00;;;;;;4993636;28;20414;-49
2022/07/18 01:34:42;;;;;;;;;;;26.70;57.80;;;;;;4993863;28;20034;-49
2022/07/18 01:37:08;;;;;;;13.00;9.27;;;26.70;58.20;;;;;;4993264;28;19973;-50
2022/07/18 01:39:35;;;;;;;11.68;9.30;;;26.60;58.30;;;;;;4992743;28;20077;-50
2022/07/18 01:42:06;;;;;;;14.18;9.88;;;26.60;58.20;;;;;;4993076;28;20033;-49
2022/07/18 01:44:33;;;;;;;12.25;10.02;;;26.60;58.40;;;;;;4993152;28;20022;-49
2022/07/18 01:46:59;;;;;;;13.05;10.75;;;26.60;58.30;;;;;;4991994;28;20031;-50
2022/07/18 01:49:29;;;;;;;13.53;10.93;;;26.50;58.20;;;;;;4993189;28;20029;-49
2022/07/18 01:51:56;;;;;;;11.15;9.77;;;26.50;58.20;;;;;;4993221;28;20069;-51
2022/07/18 01:54:22;;;;;;;;;;;;;;;;;;4992009;28;20030;-49
2022/07/18 01:56:48;;;;;;;12.75;9.55;;;;;;;;;;4993368;28;19917;-49
2022/07/18 01:59:14;;;;;;;10.23;9.23;;;;;;;;;;4991265;28;20023;-49
2022/07/18 02:01:40;;;;;;;23.55;9.43;;;;;;;;;;4992691;28;20034;-49
2022/07/18 02:04:06;;;;;;;13.18;11.20;;;;;;;;;;4992712;28;20026;-49
2022/07/18 02:06:32;;;;;;;13.32;10.05;;;;;;;;;;4992980;28;20033;-48
2022/07/18 02:08:58;;;;;;;13.20;10.35;;;;;;;;;;4992756;28;20109;-49
2022/07/18 02:11:24;;;;;;;10.02;9.02;;;;;;;;;;4992638;28;20030;-48
2022/07/18 02:13:50;;;;;;;11.93;9.75;;;;;;;;;;4992423;28;20626;-50
2022/07/18 02:16:16;;;;;;;13.70;10.00;;;;;;;;;;4992810;28;20545;-49
2022/07/18 02:18:43;;;;;;;15.00;10.00;;;;;;;;;;4991973;28;20045;-48
2022/07/18 02:21:09;;;;;;;14.10;10.95;;;;;;;;;;4992552;28;20475;-50
2022/07/18 02:23:35;;;;;;;13.40;10.25;;;;;;;;;;4992444;28;20490;-48
2022/07/18 02:26:01;;;;;;;12.70;10.98;;;;;;;;;;4991476;28;20068;-50
2022/07/18 02:28:27;;;;;;;11.60;10.43;;;;;;;;;;4991836;28;20026;-49
2022/07/18 02:30:53;;;;;;;14.10;10.55;;;;;;;;;;4991324;28;20031;-49
2022/07/18 02:33:19;;;;;;;15.90;10.52;;;;;;;;;;4991698;28;20054;-49
2022/07/18 02:35:45;;;;;;;17.67;10.43;;;;;;;;;;4991879;28;20479;-49
2022/07/18 02:38:12;;;;;;;13.98;10.75;;;;;;;;;;4991715;28;20034;-49
2022/07/18 02:40:38;;;;;;;12.77;11.07;;;;;;;;;;4989959;28;20026;-48
2022/07/18 02:43:04;;;;;;;11.55;10.27;;;;;;;;;;4990512;28;20376;-48
2022/07/18 02:45:30;;;;;;;17.98;10.90;;;;;;;;;;4990771;28;20487;-52
2022/07/18 02:47:56;;;;;;;13.02;10.50;;;;;;;;;;4991674;28;20443;-49
2022/07/18 02:50:22;;;;;;;20.83;12.02;;;;;;;;;;4990863;28;20034;-49
2022/07/18 02:52:50;;;;;;;14.07;12.05;;;;;;;;;;4991238;28;20026;-50
2022/07/18 02:55:16;;;;;;;14.23;11.55;;;;;;;;;;4991947;28;20122;-49
2022/07/18 02:57:43;;;;;;;13.52;9.93;;;26.50;58.40;;;;;;4992532;28;20502;-49
2022/07/18 03:00:12;;;;;;;16.73;11.65;;;26.40;58.30;;;;;;4991533;28;20022;-49
2022/07/18 03:02:38;;;;;;;13.52;10.00;;;26.30;58.90;;;;;;4992262;28;20026;-49
2022/07/18 03:05:05;;;;;;;12.47;10.60;;;26.30;58.60;;;;;;4991638;28;20105;-49
2022/07/18 03:07:31;;;;;;;17.85;11.20;;;26.20;59.10;;;;;;4992245;28;20479;-48
2022/07/18 03:09:57;;;;;;;13.68;10.73;;;26.20;59.20;;;;;;4992097;28;20026;-48
2022/07/18 03:12:23;;;;;;;17.60;12.23;;;26.20;59.10;;;;;;4992291;28;20038;-49
2022/07/18 03:14:49;;;;;;;15.38;11.23;;;26.10;59.20;;;;;;4988147;28;20571;-50
2022/07/18 03:17:17;;;;;;;12.83;11.00;;;26.10;59.00;;;;;;4982655;28;20215;-49
2022/07/18 03:19:42;;;;;;;16.52;10.82;;;26.10;59.30;;;;;;4992083;28;20311;-50
2022/07/18 03:22:08;;;;;;;13.20;11.00;;;26.20;59.20;;;;;;4993469;28;20538;-50
2022/07/18 03:24:34;;;;;;;13.17;11.30;;;26.10;59.80;;;;;;4992150;28;20475;-50
2022/07/18 03:27:00;;;;;;;12.97;11.13;;;26.10;59.30;;;;;;4991918;28;20042;-50
2022/07/18 03:29:26;;;;;;;13.00;9.73;;;25.90;59.70;;;;;;4991872;28;20033;-49
2022/07/18 03:31:52;;;;;;;13.00;10.43;;;25.90;60.30;;;;;;4992034;28;20038;-50
2022/07/18 03:34:18;;;;;;;14.73;10.18;;;;;;;;;;4991950;28;20039;-49
2022/07/18 03:36:44;;;;;;;15.82;12.77;;;;;;;;;;4992225;28;20027;-49
2022/07/18 03:39:12;;;;;;;13.50;10.85;;;;;;;;;;4983258;28;20502;-49
2022/07/18 03:41:38;;;;;;;12.32;11.02;;;;;;;;;;4981712;28;20565;-50
2022/07/18 03:44:04;;;;;;;11.98;10.60;;;;;;;;;;4984766;28;20475;-50
2022/07/18 03:46:31;;;;;;;16.33;11.40;;;;;;;;;;4991972;28;20034;-50
2022/07/18 03:48:57;;;;;;;17.77;11.82;;;;;;;;;;4991398;28;20416;-51
2022/07/18 03:51:23;;;;;;;14.93;11.02;;;;;;;;;;4990556;28;20531;-50
2022/07/18 03:53:49;;;;;;;11.52;10.32;;;;;;;;;;4990045;28;20073;-50
2022/07/18 03:56:15;;;;;;;11.32;10.15;;;;;;;;;;4992792;28;20027;-52
2022/07/18 03:58:42;;;;;;;15.43;10.85;;;;;;;;;;4992179;28;20026;-50
2022/07/18 04:01:08;;;;;;;14.50;10.23;;;;;;;;;;4989345;28;20058;-50
2022/07/18 04:03:34;;;;;;;15.32;8.90;;;;;;;;;;4984667;28;20019;-50
2022/07/18 04:06:00;;;;;;;12.55;9.93;;;;;;;;;;4976027;28;20034;-49
2022/07/18 04:08:26;;;;;;;10.52;8.60;;;;;;;;;;4975802;28;20030;-50
2022/07/18 04:10:52;;;;;;;14.88;9.30;;;;;;;;;;4975809;28;20026;-50
2022/07/18 04:13:18;;;;;;;18.52;9.98;;;;;;;;;;4975610;28;20515;-50
2022/07/18 04:15:44;;;;;;;15.27;10.20;;;;;;;;;;4975783;28;20057;-49
2022/07/18 04:18:10;;;;;;;13.35;8.98;;;;;;;;;;4975824;28;20048;-53
2022/07/18 04:20:38;;;;;;;17.35;8.93;;;;;;;;;;4975566;28;20073;-52
2022/07/18 04:23:06;;;;;;;12.90;10.63;;;;;;;;;;4975607;28;20102;-50
2022/07/18 04:25:35;;;;;;;18.70;9.50;;;;;;;;;;4975620;28;20447;-50
2022/07/18 04:28:02;;;;;;;11.38;8.00;;;;;;;;;;4975518;28;20030;-52
2022/07/18 04:30:28;;;;;;;13.70;8.50;;;;;;;;;;4975404;28;20484;-50
2022/07/18 04:32:55;;;;;;;13.98;9.13;;;;;;;;;;4975496;28;20026;-50
2022/07/18 04:35:22;;;;;;;14.10;9.85;;;;;;;;;;4975412;28;20065;-51
2022/07/18 04:37:47;;;;;;;;;;;;;;;;;;4976018;28;20034;-50
2022/07/18 04:40:15;;;;;;;15.85;8.15;;;;;;;;;;4975171;28;19910;-51
2022/07/18 04:42:41;;;;;;;14.65;7.97;;;;;;;;;;4975183;28;20034;-52
2022/07/18 04:45:08;;;;;;;11.35;8.20;;;;;;;;;;4975254;28;20027;-51
2022/07/18 04:47:34;;;;;;;9.35;7.82;;;;;;;;;;4975544;28;20041;-50
2022/07/18 04:50:00;;;;;;;13.98;8.52;;;;;;;;;;4975194;28;20022;-50
2022/07/18 04:52:26;;;;;;;16.30;8.20;;;;;;;;;;4974938;28;20033;-50
2022/07/18 04:54:53;;;;;;;10.73;8.02;;;;;;;;;;4975815;28;20034;-50
2022/07/18 04:57:19;;;;;;;15.68;8.80;;;;;;;;;;4994554;28;20391;-50
2022/07/18 04:59:45;;;;;;;9.20;6.95;;;;;;;;;;4994404;28;20023;-50
2022/07/18 05:02:12;;;;;;;9.80;8.02;;;;;;;;;;4993186;28;20446;-51
2022/07/18 05:04:38;;;;;;;10.02;8.25;;;;;;;;;;4994464;28;20053;-50
2022/07/18 05:07:05;;;;;;;9.40;7.95;;;;;;;;;;4994512;28;20506;-50
2022/07/18 05:09:31;;;;;;;9.10;7.68;;;;;;;;;;4994267;28;20080;-53
2022/07/18 05:11:57;;;;;;;9.63;7.32;;;;;;;;;;5004714;22;20108;-51
2022/07/18 05:14:23;;;;;;;8.95;7.53;;;;;;;;;;5013656;28;20136;-50
2022/07/18 05:16:49;;;;;;;11.38;7.68;;;;;;;;;;5013775;28;20422;-50
2022/07/18 05:19:15;;;;;;;11.75;8.02;;;;;;;;;;5013540;28;20513;-51
2022/07/18 05:21:42;;;;;;;9.80;7.75;;;;;;;;;;5012813;28;20029;-51
2022/07/18 05:24:08;;;;;;;;;;;;;;;;;;5011790;28;20049;-51
2022/07/18 05:26:34;;;;;;;15.43;7.72;;;;;;;;;;5011625;28;19916;-50
2022/07/18 05:29:00;;;;;;;13.35;8.40;;;;;;;;;;5011797;28;20022;-49
2022/07/18 05:31:26;;;;;;;14.38;7.68;;;;;;;;;;5011973;28;20030;-51
2022/07/18 05:33:52;;;;;;;16.80;8.27;;;;;;;;;;5011767;28;20036;-50
2022/07/18 05:36:18;;;;;;;14.57;7.97;;;;;;;;;;5012294;28;20018;-51
2022/07/18 05:38:44;;;;;;;11.50;7.70;;;;;;;;;;5011581;28;20025;-51
2022/07/18 05:41:10;;;;;;;9.65;7.25;;;;;;;;;;5013436;28;20029;-50
2022/07/18 05:43:36;;;;;;;13.82;7.07;;;;;;;;;;5011641;28;20033;-51
2022/07/18 05:46:03;;;;;;;9.52;7.05;;;;;;;;;;5013213;28;20394;-50
2022/07/18 05:48:29;;;;;;;13.85;6.82;;;;;;;;;;5013009;28;20453;-51
2022/07/18 05:50:55;;;;;;;12.75;5.70;;;;;;;;;;5012657;28;20030;-50
2022/07/18 05:53:21;;;;;;;6.60;5.70;;;;;;;;;;5012693;28;20057;-51
2022/07/18 05:55:47;;;;;;;11.43;6.13;;;;;;;;;;5012926;28;20095;-50
2022/07/18 05:58:13;;;;;;;10.60;5.88;;;;;;;;;;5013011;28;20062;-50
2022/07/18 06:00:39;;;;;;;12.03;6.10;;;;;;;;;;5011520;28;20054;-50
2022/07/18 06:03:05;;;;;;;8.93;5.95;;;;;;;;;;5012729;28;20307;-57
2022/07/18 06:05:31;;;;;;;16.95;5.95;;;;;;;;;;5012975;28;20025;-55
2022/07/18 06:07:57;;;;;;;11.95;5.45;;;;;;;;;;5012773;28;20451;-57
2022/07/18 06:10:27;;;;;;;12.52;5.57;;;;;;;;;;5012626;28;20100;-57
2022/07/18 06:12:53;;;;;;;10.32;4.95;;;;;;;;;;4999232;28;20084;-49
2022/07/18 06:15:19;;;;;;;13.60;5.10;;;;;;;;;;4993056;28;20105;-48
2022/07/18 06:17:45;;;;;;;11.80;4.22;;;;;;;;;;4993183;28;20026;-48
2022/07/18 06:20:12;;;;;;;13.13;5.15;;;;;;;;;;4998007;28;20094;-48
2022/07/18 06:22:38;;;;;;;6.93;4.75;;;;;;;;;;4997888;28;20113;-48
2022/07/18 06:25:04;;;;;;;14.00;4.90;;;;;;;;;;4992366;28;20399;-50
2022/07/18 06:27:30;;;;;;;13.75;4.38;;;;;;;;;;4992941;28;20030;-50
2022/07/18 06:29:58;;;;;;;7.05;4.93;;;;;;;;;;4992755;28;20022;-48
2022/07/18 06:32:24;;;;;;;10.70;4.97;;;;;;;;;;4992813;28;20076;-47
2022/07/18 06:34:50;;;;;;;11.55;4.45;;;;;;;;;;4992729;28;20026;-46
2022/07/18 06:37:16;;;;;;;16.63;4.32;;;;;;;;;;4991538;28;20084;-46
2022/07/18 06:39:42;;;;;;;15.35;5.13;;;;;;;;;;4992480;28;20472;-47
2022/07/18 06:42:08;;;;;;;6.72;3.88;;;;;;;;;;4992676;28;20439;-47
2022/07/18 06:44:34;;;;;;;9.98;3.80;;;;;;;;;;4992719;28;20026;-47
2022/07/18 06:47:00;;;;;;;6.93;3.30;;;;;;;;;;4992702;28;20104;-47
2022/07/18 06:49:26;;;;;;;10.52;4.13;;;;;;;;;;4992457;28;20026;-48
2022/07/18 06:51:52;;;;;;;8.00;3.78;;;;;;;;;;4992371;28;20061;-46
2022/07/18 06:54:20;;;;;;;7.13;3.35;;;;;;;;;;4992487;28;20027;-48
2022/07/18 06:56:46;;;;;;;11.75;3.30;;;;;;;;;;4992619;28;20156;-46
2022/07/18 06:59:12;;;;;;;7.88;3.80;;;;;;;;;;4997529;28;20105;-47
2022/07/18 07:01:38;;;;;;;8.50;3.90;;;;;;;;;;4992475;28;20031;-46
2022/07/18 07:04:04;;;;;;;6.18;3.45;;;;;;;;;;4992369;28;20022;-47
2022/07/18 07:06:30;;;;;;;7.05;3.20;;;;;;;;;;4992404;28;20049;-47
2022/07/18 07:08:56;;;;;;;6.75;3.45;;;;;;;;;;4992243;28;20046;-47
2022/07/18 07:11:22;;;;;;;11.68;3.53;;;;;;;;;;4994785;28;20068;-46
2022/07/18 07:13:49;;;;;;;9.40;3.47;;;;;;;;;;5010867;28;20084;-45
2022/07/18 07:16:15;;;;;;;6.88;3.47;;;;;;;;;;5010668;28;20033;-46
2022/07/18 07:18:41;;;;;;;6.10;3.17;;;;;;;;;;5011763;28;20026;-46
2022/07/18 07:21:08;;;;;;;8.63;3.70;;;;;;;;;;5011871;28;20448;-47
2022/07/18 07:23:34;;;;;;;7.63;3.15;;;;;;;;;;5011807;28;20029;-46
2022/07/18 07:26:00;;;;;;;5.38;3.22;;;;;;;;;;5012034;28;20041;-47
2022/07/18 07:28:26;;;;;;;7.43;3.22;;;;;;;;;;5011835;28;20022;-45
2022/07/18 07:30:52;;;;;;;5.88;2.88;;;;;;;;;;5011830;28;20041;-46
2022/07/18 07:33:18;;;;;;;6.38;3.47;;;;;;;;;;5011600;28;20030;-46
2022/07/18 07:35:45;;;;;;;7.68;3.00;;;;;;;;;;5007644;28;20026;-46
2022/07/18 07:38:17;;;;;;;4.47;2.72;;;;;;;;;;5015733;28;20380;-50
2022/07/18 07:40:43;;;;;;;6.28;3.10;;;;;;;;;;5014294;28;20173;-51
2022/07/18 07:43:11;;;;;;;6.22;2.55;;;;;;;;;;5013105;28;20033;-50
2022/07/18 07:45:37;;;;;;;14.75;3.22;;;;;;;;;;5015425;28;20037;-51
2022/07/18 07:48:03;;;;;;;;;;;;;;;;;;5015680;28;20080;-51
2022/07/18 07:50:29;;;;;;;4.53;2.60;;;;;;;;;;5015377;28;19905;-50
2022/07/18 07:52:56;;;;;;;5.75;2.80;;;;;;;;;;5015234;28;20104;-51
2022/07/18 07:55:23;;;;;;;6.95;2.90;;;;;;;;;;5015271;28;20201;-51
2022/07/18 07:57:49;;;;;;;8.65;2.80;;;;;;;;;;5015285;28;20028;-51
2022/07/18 08:00:15;;;;;;;4.88;2.95;;;;;;;;;;5013729;28;20109;-50
2022/07/18 08:03:01;;;;;;;8.93;2.83;;;;;;;;;;5014948;28;20462;-51
2022/07/18 08:05:32;;;;;;;9.57;3.25;;;25.90;59.50;;;;;;5015078;28;20026;-52
2022/07/18 08:07:59;;;;;;;7.30;2.97;;;;;;;;;;5013932;28;20034;-51
2022/07/18 08:10:26;;;;;;;8.05;3.15;;;29.50;48.00;;;;;;5014856;28;20061;-50
2022/07/18 08:12:52;;;;;;;7.65;3.53;;;29.60;48.30;;;;;;5014691;28;20044;-50
2022/07/18 08:15:18;;;;;;;7.68;2.72;;;29.60;48.60;;;;;;5014845;28;20087;-51
2022/07/18 08:17:43;;;;;;;10.80;2.90;;;29.70;48.30;;;;;;5014981;28;20029;-50
2022/07/18 08:20:11;;;;;;;3.87;2.37;;;29.70;48.60;;;;;;5014770;28;20018;-51
2022/07/18 08:22:52;;;;;;;9.18;2.70;;;29.80;48.60;;;;;;5014753;28;20087;-51
2022/07/18 08:25:19;;;;;;;6.88;3.22;;;29.80;48.60;;;;;;5014705;28;20026;-52
2022/07/18 08:27:45;;;;;;;6.22;2.63;;;29.80;48.60;;;;;;5014646;28;20386;-50
2022/07/18 08:30:10;;;;;;;5.03;3.03;;;29.80;48.60;;;;;;5014610;28;20646;-50
2022/07/18 08:32:36;;;;;;;4.82;2.05;;;;;;;;;;5014497;28;20544;-50
2022/07/18 08:35:03;;;;;;;6.20;2.83;;;;;;;;;;5014588;28;20026;-52
2022/07/18 08:37:29;;;;;;;14.18;2.80;;;;;;;;;;5014634;28;20336;-51
2022/07/18 08:39:55;;;;;;;6.70;2.60;;;29.90;48.50;;;;;;5014296;28;20022;-51
2022/07/18 08:42:23;;;;;;;13.17;2.93;;;;;;;;;;5014350;28;20037;-51
2022/07/18 08:44:49;;;;;;;4.90;2.95;;;;;;;;;;5013062;28;20475;-50
2022/07/18 08:47:18;;;;;;;7.15;2.65;;;;;;;;;;5013369;28;20030;-50
2022/07/18 08:49:44;;;;;;;3.95;2.60;;;;;;;;;;5014092;28;20030;-50
2022/07/18 08:52:10;;;;;;;3.60;2.10;;;;;;;;;;5014155;28;20447;-51
2022/07/18 08:54:37;;;;;;;9.95;2.50;;;;;;;;;;5013967;28;20481;-51
2022/07/18 08:57:03;;;;;;;7.88;2.63;;;;;;;;;;5014195;28;20030;-51
2022/07/18 08:59:29;;;;;;;7.68;2.63;;;;;;;;;;5013960;28;20025;-51
2022/07/18 09:01:55;;;;;;;4.93;3.03;;;;;;;;;;5013945;28;20026;-51
2022/07/18 09:04:33;;;;;;;6.85;3.15;;;;;;;;;;5012804;28;20061;-50
2022/07/18 09:06:59;;;;;;;4.72;3.03;;;;;;;;;;5013946;28;20033;-51
2022/07/18 09:09:25;;;;;;;8.90;3.05;;;;;;;;;;5013772;28;20101;-51
2022/07/18 09:11:52;;;;;;;9.82;3.60;;;;;;;;;;5013683;28;20421;-51
2022/07/18 09:14:29;;;;;;;4.18;2.67;;;;;;;;;;5013740;28;20017;-51
2022/07/18 09:17:01;;;;;;;4.40;2.90;;;;;;;;;;5013696;28;20088;-50
2022/07/18 09:19:27;;;;;;;9.18;3.40;;;;;;;;;;5013620;28;20026;-50
2022/07/18 09:21:53;;;;;;;6.45;2.97;;;;;;;;;;5013421;28;20125;-52
2022/07/18 09:24:19;;;;;;;7.00;2.78;;;;;;;;;;5013663;28;20372;-51
2022/07/18 09:26:46;;;;;;;17.52;3.17;;;;;;;;;;5013638;28;20536;-50
2022/07/18 09:29:15;;;;;;;6.10;2.78;;;;;;;;;;5013430;28;20037;-51
2022/07/18 09:31:48;;;;;;;7.07;2.88;;;;;;;;;;5012102;28;20610;-53
2022/07/18 09:34:14;;;;;;;7.80;2.60;;;;;;;;;;5013324;28;20022;-51
2022/07/18 09:36:56;;;;;;;11.35;3.50;;;;;;;;;;5013391;28;20111;-50
2022/07/18 09:39:22;;;;;;;3.83;2.33;;;;;;;;;;5013251;28;20014;-52
2022/07/18 09:41:48;;;;;;;4.47;3.40;;;;;;;;;;5013224;28;20038;-52
2022/07/18 09:44:15;;;;;;;8.75;3.20;;;;;;;;;;5011993;28;20083;-52
2022/07/18 09:47:00;;;;;;;8.93;2.95;;;;;;;;;;5011823;28;20552;-51
2022/07/18 09:49:39;;;;;;;5.55;2.65;;;;;;;;;;5011691;28;20033;-50
2022/07/18 09:52:07;;;;;;;3.83;2.63;;;;;;;;;;5012964;28;20415;-50
2022/07/18 09:54:37;;;;;;;8.80;3.13;;;;;;;;;;5012958;28;20061;-51
2022/07/18 09:57:03;;;;;;;7.32;2.55;;;;;;;;;;5012985;28;20152;-50
2022/07/18 09:59:29;;;;;;;6.47;2.92;;;;;;;;;;5012567;28;20387;-50
2022/07/18 10:01:56;;;;;;;7.10;2.63;;;;;;;;;;5012720;28;20022;-53
2022/07/18 10:04:22;;;;;;;8.15;3.00;;;;;;;;;;5012953;28;20029;-50
2022/07/18 10:06:48;;;;;;;5.40;2.60;;;;;;;;;;5013105;28;20103;-51
2022/07/18 10:09:14;;;;;;;8.15;3.25;;;;;;;;;;5012753;28;20032;-51
2022/07/18 10:11:42;;;;;;;10.23;2.90;;;;;;;;;;5011891;28;20041;-51
2022/07/18 10:14:09;;;;;;;7.35;3.13;;;;;;;;;;5012556;28;20121;-52
2022/07/18 10:16:35;;;;;;;8.02;2.97;;;;;;;;;;5012651;28;20030;-51
2022/07/18 10:19:02;;;;;;;8.63;3.17;;;;;;;;;;5016189;28;20033;-51
2022/07/18 10:21:29;;;;;;;4.35;2.53;;;;;;;;;;5013894;28;20104;-51
2022/07/18 10:23:56;;;;;;;6.35;3.70;;;;;;;;;;5013686;28;20554;-51
2022/07/18 10:26:24;;;;;;;4.78;2.63;;;;;;;;;;5025117;28;20471;-50
2022/07/18 10:28:55;;;;;;;7.18;2.55;;;;;;;;;;5020914;28;20041;-50
2022/07/18 10:31:26;;;;;;;4.75;2.47;;;;;;;;;;5017614;28;20044;-51
2022/07/18 10:33:53;;;;;;;3.97;2.70;;;;;;;;;;5007352;28;20048;-50
2022/07/18 10:36:20;;;;;;;7.18;2.75;;;;;;;;;;5004741;28;20065;-51
2022/07/18 10:39:08;;;;;;;4.00;2.53;;;;;;;;;;5003957;28;20084;-50
2022/07/18 10:41:39;;;;;;;6.07;2.42;;;;;;;;;;5004398;28;20049;-51
2022/07/18 10:44:34;;;;;;;4.32;2.10;;;;;;;;;;5012335;28;20029;-50
2022/07/18 10:47:03;;;;;;;4.07;2.33;;;;;;;;;;5011906;28;20426;-53
2022/07/18 10:49:51;;;;;;;4.97;2.75;;;;;;;;;;5011859;28;20121;-51
2022/07/18 10:52:24;;;;;;;9.93;2.60;;;;;;;;;;5011868;28;20034;-50
2022/07/18 10:57:29;;;;;;;5.13;2.63;;;;;;;;;;5001366;28;20033;-50
2022/07/18 11:00:07;;;;;;;5.65;2.35;;;;;;;;;;5003363;28;20101;-51
2022/07/18 11:02:36;;;;;;;6.53;2.85;;;;;;;;;;5011745;28;20084;-51
2022/07/18 11:05:02;;;;;;;6.45;2.78;;;;;;;;;;5007808;28;20054;-52
2022/07/18 11:07:28;;;;;;;5.18;2.35;;;;;;;;;;5005110;28;20034;-51
2022/07/18 11:09:54;;;;;;;3.08;2.28;;;;;;;;;;5007814;28;20036;-51
2022/07/18 11:12:20;;;;;;;5.78;2.80;;;;;;;;;;5016469;22;20059;-56
2022/07/18 11:15:05;;;;;;;7.45;2.72;;;;;;;;;;5021902;28;20054;-57
2022/07/18 11:17:50;;;;;;;6.75;2.72;;;;;;;;;;4988405;28;20081;-56
2022/07/18 11:20:24;;;;;;;5.28;2.88;;;;;;;;;;4979464;28;20037;-57
2022/07/18 11:22:51;;;;;;;5.70;2.63;;;;;;;;;;4971961;28;20038;-55
2022/07/18 11:25:17;;;;;;;;;;;;;;;;;;4989664;28;20031;-57
2022/07/18 11:27:44;;;;;;;6.43;2.40;;;;;;;;;;4991768;28;19921;-57
2022/07/18 11:30:10;;;;;;;5.00;2.55;;;;;;;;;;4992175;28;20089;-56
2022/07/18 11:32:36;;;;;;;;;;;;;;;;;;4991262;28;20037;-57
2022/07/18 11:35:05;;;;;;;3.40;2.47;;;;;;;;;;4991673;28;19917;-56
2022/07/18 11:37:32;;;;;;;6.07;2.75;;;;;;;;;;4991709;28;20122;-57
2022/07/18 11:40:07;;;;;;;4.07;2.67;;;;;;;;;;4992031;28;20368;-56
2022/07/18 11:42:39;;;;;;;24.35;2.92;;;;;;;;;;4991603;28;20027;-56
2022/07/18 11:45:06;;;;;;;2.08;1.73;;;;;;;;;;4992153;28;20065;-55
2022/07/18 11:47:37;;;;;;;6.93;2.60;;;;;;;;;;4991840;28;20046;-57
2022/07/18 11:50:03;;;;;;;4.40;2.20;;;;;;;;;;4991922;28;20096;-56
2022/07/18 11:52:32;;;;;;;4.30;2.45;;;;;;;;;;4991728;28;20502;-56
2022/07/18 11:55:00;;;;;;;6.32;2.55;;;;;;;;;;4992037;28;20050;-56
2022/07/18 11:57:30;;;;;;;4.40;2.28;;;;;;;;;;4991802;28;20023;-57
2022/07/18 11:59:56;;;;;;;5.13;2.38;;;;;;;;;;4991776;28;20127;-56
2022/07/18 12:02:41;;;;;;;7.25;3.10;;;;;;;;;;4991660;28;20037;-57
2022/07/18 12:05:07;;;;;;;5.40;2.47;;;;;;;;;;4991916;28;20088;-56
2022/07/18 12:07:33;;;;;;;5.97;3.45;;;;;;;;;;4991735;28;20162;-55
2022/07/18 12:10:14;;;;;;;4.55;2.45;;;;;;;;;;4991733;28;20650;-57
2022/07/18 12:12:41;;;;;;;3.25;2.40;;;;;;;;;;4991469;28;20092;-57
2022/07/18 12:15:08;;;;;;;6.57;2.60;;;;;;;;;;4991954;28;20031;-57
2022/07/18 12:17:43;;;;;;;3.00;2.70;;;;;;;;;;4991588;28;20034;-57
2022/07/18 12:20:11;;;;;;;4.28;2.35;;;;;;;;;;4991563;28;20026;-57
2022/07/18 12:22:37;;;;;;;6.32;2.97;;;;;;;;;;4993200;28;20049;-56
2022/07/18 12:25:04;;;;;;;4.60;2.80;;;;;;;;;;4995324;28;20446;-56
2022/07/18 12:27:30;;;;;;;3.83;2.75;;;;;;;;;;4994829;28;20030;-57
2022/07/18 12:29:59;;;;;;;3.90;2.45;;;;;;;;;;4994700;28;20042;-56
2022/07/18 12:32:25;;;;;;;5.13;2.55;;;;;;;;;;4994912;28;20034;-56
2022/07/18 12:34:56;;;;;;;4.57;2.83;;;;;;;;;;4975608;28;20064;-56
2022/07/18 12:37:25;;;;;;;7.38;3.22;;;;;;;;;;4989725;28;20033;-57
2022/07/18 12:39:56;;;;;;;5.55;2.88;;;;;;;;;;4994745;28;20033;-57
2022/07/18 12:42:38;;;;;;;14.73;2.65;;;;;;;;;;4994497;28;20479;-53
2022/07/18 12:45:04;;;;;;;3.33;2.58;;;;;;;;;;4995052;28;20109;-56
2022/07/18 12:47:31;;;;;;;6.00;2.88;;;;;;;;;;4994543;28;20068;-56
2022/07/18 12:49:57;;;;;;;6.97;2.47;;;;;;;;;;4994648;28;20109;-57
2022/07/18 12:52:24;;;;;;;3.78;2.55;;;;;;;;;;4994282;28;20487;-56
2022/07/18 12:54:50;;;;;;;;;;;;;;;;;;4994658;28;20026;-57
2022/07/18 12:57:16;;;;;;;6.75;2.45;;;;;;;;;;4994418;28;19916;-56
2022/07/18 12:59:42;;;;;;;;;;;;;;;;;;4994743;28;20034;-57
2022/07/18 13:02:08;;;;;;;5.95;2.60;;;;;;;;;;4994527;28;20014;-54
2022/07/18 13:04:34;;;;;;;2.60;2.28;;;;;;;;;;4994141;28;20030;-56
2022/07/18 13:07:00;;;;;;;3.70;2.72;;;;;;;;;;4994296;28;20088;-57
2022/07/18 13:09:26;;;;;;;6.78;2.83;;;;;;;;;;4994387;28;20105;-56
2022/07/18 13:11:52;;;;;;;4.68;2.63;;;;;;;;;;4994409;28;20030;-53
2022/07/18 13:14:19;;;;;;;2.50;2.30;;;;;;;;;;4993969;28;20495;-56
2022/07/18 13:16:46;;;;;;;6.55;2.80;;;;;;;;;;4994085;28;20076;-57
2022/07/18 13:19:13;;;;;;;3.75;2.47;;;;;;;;;;4993807;28;20502;-56
2022/07/18 13:21:39;;;;;;;3.15;2.25;;;;;;;;;;4993857;28;20446;-57
2022/07/18 13:24:05;;;;;;;10.48;2.60;;;;;;;;;;4993897;28;20018;-55
2022/07/18 13:26:31;;;;;;;;;;;;;;;;;;4994162;28;20030;-55
2022/07/18 13:28:57;;;;;;;4.90;2.35;;;;;;;;;;4993857;28;19912;-57
2022/07/18 13:31:23;;;;;;;;;;;;;;;;;;4994206;28;20038;-57
2022/07/18 13:33:50;;;;;;;3.80;2.50;;;;;;;;;;4993408;28;19913;-57
2022/07/18 13:36:17;;;;;;;2.92;2.28;;;;;;;;;;4993342;28;20084;-56
2022/07/18 13:38:43;;;;;;;3.58;2.00;;;;;;;;;;4993276;28;20058;-54
2022/07/18 13:41:09;;;;;;;4.28;2.45;;;;;;;;;;4993246;28;20057;-58
2022/07/18 13:43:40;;;;;;;6.38;2.70;;;;;;;;;;4993764;28;20018;-57
2022/07/18 13:46:09;;;;;;;5.25;2.90;;;;;;;;;;4993405;28;20462;-54
2022/07/18 13:48:35;;;;;;;2.72;2.30;;;;;;;;;;4993632;28;20030;-54
2022/07/18 13:51:02;;;;;;;3.55;2.50;;;;;;;;;;4993327;28;20030;-58
2022/07/18 13:53:28;;;;;;;11.65;9.27;;;;;;;;;;4989326;28;20028;-58
2022/07/18 13:55:54;;;;;;;7.93;3.13;;;;;;;;;;4985213;28;20041;-57
2022/07/18 13:58:20;;;;;;;4.75;2.22;;;;;;;;;;4985089;28;20019;-55
2022/07/18 14:00:46;;;;;;;6.40;2.60;;;;;;;;;;4982055;28;20022;-58
2022/07/18 14:03:12;;;;;;;3.67;2.00;;;;;;;;;;4984655;28;20502;-58
2022/07/18 14:05:39;;;;;;;4.07;2.67;;;;;;;;;;4985176;28;20077;-57
2022/07/18 14:08:05;;;;;;;8.13;2.88;;;;;;;;;;4983915;28;20542;-57
2022/07/18 14:10:31;;;;;;;5.03;2.45;;;;;;;;;;4984792;28;20121;-57
2022/07/18 14:12:57;;;;;;;3.38;2.50;;;;;;;;;;4983500;28;20045;-58
2022/07/18 14:15:23;;;;;;;6.13;2.83;;;;;;;;;;4985039;28;20038;-57
2022/07/18 14:17:49;;;;;;;5.00;2.45;;;;;;;;;;4986832;28;20037;-56
2022/07/18 14:20:16;;;;;;;4.10;2.72;;;;;;;;;;4989683;28;20022;-58
2022/07/18 14:22:42;;;;;;;4.10;2.53;;;;;;;;;;4986624;28;20027;-58
2022/07/18 14:25:10;;;;;;;4.30;2.38;;;;;;;;;;4992700;28;20034;-58
2022/07/18 14:27:36;;;;;;;4.20;3.03;;;;;;;;;;4992542;28;20026;-58